createdAt,value
2024-01-30T00:02:17.408Z,5.32
2024-01-30T00:05:43.213Z,7.70
2024-01-30T00:09:10.310Z,5.80
2024-01-30T00:12:36.121Z,5.72
2024-01-30T00:16:05.398Z,6.03
2024-01-30T00:19:31.207Z,5.63
2024-01-30T00:22:57.052Z,6.88
2024-01-30T00:26:22.490Z,7.57
2024-01-30T00:29:48.276Z,6.78
2024-01-30T00:33:16.744Z,7.65
2024-01-30T00:36:42.964Z,7.93
2024-01-30T00:40:11.799Z,6.80
2024-01-30T00:43:37.326Z,6.90
2024-01-30T00:47:03.111Z,8.18
2024-01-30T00:50:31.216Z,6.90
2024-01-30T00:53:57.000Z,6.93
2024-01-30T00:57:22.453Z,7.05
2024-01-30T01:00:48.339Z,7.45
2024-01-30T01:04:13.945Z,6.85
2024-01-30T01:07:44.074Z,7.05
2024-01-30T01:11:09.950Z,6.93
2024-01-30T01:14:35.352Z,7.18
2024-01-30T01:18:01.186Z,5.38
2024-01-30T01:21:27.274Z,7.10
2024-01-30T01:24:55.312Z,6.28
2024-01-30T01:28:21.258Z,7.07
2024-01-30T01:31:47.817Z,6.93
2024-01-30T01:35:13.825Z,6.80
2024-01-30T01:38:39.684Z,6.13
2024-01-30T01:42:08.211Z,7.20
2024-01-30T01:45:33.948Z,7.00
2024-01-30T01:49:00.906Z,7.88
2024-01-30T01:52:27.105Z,5.45
2024-01-30T01:55:54.415Z,6.68
2024-01-30T01:59:24.053Z,6.93
2024-01-30T02:02:50.135Z,7.28
2024-01-30T02:06:16.067Z,6.95
2024-01-30T02:09:41.966Z,7.50
2024-01-30T02:13:07.720Z,6.78
2024-01-30T02:16:36.257Z,7.10
2024-01-30T02:20:02.098Z,6.50
2024-01-30T02:23:30.189Z,6.15
2024-01-30T02:26:56.041Z,6.35
2024-01-30T02:30:21.500Z,6.75
2024-01-30T02:33:47.614Z,7.40
2024-01-30T02:37:13.061Z,6.07
2024-01-30T02:40:41.498Z,6.60
2024-01-30T02:44:07.071Z,7.32
2024-01-30T02:47:33.186Z,6.22
2024-01-30T02:50:59.294Z,7.43
2024-01-30T02:54:25.298Z,7.43
2024-01-30T02:57:54.489Z,6.95
2024-01-30T03:01:20.666Z,7.28
2024-01-30T03:04:46.412Z,6.68
2024-01-30T03:08:12.357Z,6.53
2024-01-30T03:11:38.275Z,6.53
2024-01-30T03:15:06.390Z,7.15
2024-01-30T03:18:32.161Z,6.68
2024-01-30T03:21:57.632Z,6.07
2024-01-30T03:25:23.463Z,6.82
2024-01-30T03:28:49.167Z,6.22
2024-01-30T03:32:17.610Z,7.03
2024-01-30T03:35:43.376Z,6.80
2024-01-30T03:39:08.775Z,6.60
2024-01-30T03:42:34.629Z,5.53
2024-01-30T03:46:00.200Z,5.93
2024-01-30T03:49:28.726Z,6.88
2024-01-30T03:52:53.990Z,7.35
2024-01-30T03:56:19.731Z,6.25
2024-01-30T03:59:46.097Z,6.03
2024-01-30T04:03:11.518Z,7.72
2024-01-30T04:06:40.147Z,6.47
2024-01-30T04:10:07.129Z,5.60
2024-01-30T04:13:32.701Z,6.72
2024-01-30T04:16:58.491Z,6.60
2024-01-30T04:20:23.870Z,6.72
2024-01-30T04:23:52.441Z,6.40
2024-01-30T04:27:17.936Z,6.55
2024-01-30T04:30:44.116Z,5.72
2024-01-30T04:34:10.161Z,5.60
2024-01-30T04:37:35.674Z,5.95
2024-01-30T04:41:04.440Z,6.47
2024-01-30T04:44:30.198Z,7.50
2024-01-30T04:47:55.760Z,7.13
2024-01-30T04:51:21.815Z,7.13
2024-01-30T04:54:47.309Z,6.75
2024-01-30T04:58:15.821Z,6.68
2024-01-30T05:01:41.300Z,7.95
2024-01-30T05:05:07.290Z,6.53
2024-01-30T05:08:33.713Z,6.20
2024-01-30T05:11:59.540Z,6.60
2024-01-30T05:15:27.836Z,6.38
2024-01-30T05:18:53.742Z,7.40
2024-01-30T05:22:20.218Z,5.57
2024-01-30T05:25:46.123Z,7.53
2024-01-30T05:29:12.062Z,6.63
2024-01-30T05:32:40.997Z,6.03
2024-01-30T05:36:06.730Z,6.57
2024-01-30T05:39:34.354Z,5.07
2024-01-30T05:43:02.284Z,6.43
2024-01-30T05:46:28.352Z,6.47
2024-01-30T05:49:56.391Z,6.22
2024-01-30T05:53:22.163Z,6.55
2024-01-30T05:56:47.989Z,6.95
2024-01-30T06:00:13.716Z,7.32
2024-01-30T06:03:40.259Z,6.55
2024-01-30T06:07:09.410Z,7.60
2024-01-30T06:10:35.360Z,6.63
2024-01-30T06:14:01.234Z,6.88
2024-01-30T06:17:26.712Z,6.82
2024-01-30T06:20:52.528Z,5.75
2024-01-30T06:24:21.305Z,6.18
2024-01-30T06:27:47.321Z,6.72
2024-01-30T06:31:12.758Z,6.50
2024-01-30T06:34:40.321Z,5.03
2024-01-30T06:38:05.859Z,4.57
2024-01-30T06:41:34.350Z,6.40
2024-01-30T06:45:00.506Z,6.47
2024-01-30T06:48:26.383Z,6.45
2024-01-30T06:51:52.093Z,5.82
2024-01-30T06:55:18.179Z,5.50
2024-01-30T06:58:46.751Z,5.60
2024-01-30T07:02:12.931Z,7.30
2024-01-30T07:05:38.408Z,6.22
2024-01-30T07:09:04.763Z,6.97
2024-01-30T07:12:30.997Z,6.38
2024-01-30T07:15:59.340Z,6.80
2024-01-30T07:19:24.858Z,5.43
2024-01-30T07:22:51.357Z,6.72
2024-01-30T07:26:17.492Z,6.65
2024-01-30T07:29:43.292Z,4.70
2024-01-30T07:33:12.263Z,7.13
2024-01-30T07:36:38.176Z,6.20
2024-01-30T07:40:05.985Z,6.18
2024-01-30T07:43:31.484Z,7.22
2024-01-30T07:46:57.346Z,7.78
2024-01-30T07:50:25.861Z,5.43
2024-01-30T07:53:51.701Z,6.47
2024-01-30T07:57:17.105Z,6.35
2024-01-30T08:00:43.055Z,6.45
2024-01-30T08:04:09.035Z,6.47
2024-01-30T08:07:37.583Z,6.63
2024-01-30T08:11:02.973Z,7.05
2024-01-30T08:14:29.441Z,6.55
2024-01-30T08:17:59.417Z,6.82
2024-01-30T08:21:25.246Z,5.60
2024-01-30T08:24:53.680Z,6.47
2024-01-30T08:28:21.402Z,6.85
2024-01-30T08:31:47.679Z,5.93
2024-01-30T08:35:15.396Z,6.45
2024-01-30T08:38:41.349Z,6.57
2024-01-30T08:42:09.940Z,7.28
2024-01-30T08:45:35.661Z,5.43
2024-01-30T08:49:01.241Z,5.70
2024-01-30T08:52:27.250Z,7.07
2024-01-30T08:55:52.688Z,5.72
2024-01-30T08:59:21.491Z,6.57
2024-01-30T09:02:47.297Z,6.45
2024-01-30T09:06:13.901Z,6.13
2024-01-30T09:09:40.633Z,5.72
2024-01-30T09:13:06.546Z,6.72
2024-01-30T09:16:34.671Z,7.68
2024-01-30T09:20:00.583Z,6.38
2024-01-30T09:23:26.340Z,5.95
2024-01-30T09:26:52.151Z,6.50
2024-01-30T09:30:18.269Z,7.30
2024-01-30T09:33:48.892Z,6.63
2024-01-30T09:37:16.800Z,6.65
2024-01-30T09:40:43.223Z,7.13
2024-01-30T09:44:10.139Z,6.35
2024-01-30T09:47:37.118Z,6.85
2024-01-30T09:51:06.826Z,7.53
2024-01-30T09:54:36.987Z,6.75
2024-01-30T09:58:03.753Z,7.05
2024-01-30T10:01:29.843Z,7.10
2024-01-30T10:04:56.232Z,7.47
2024-01-30T10:08:24.954Z,6.72
2024-01-30T10:11:50.375Z,5.95
2024-01-30T10:15:17.265Z,7.30
2024-01-30T10:18:44.834Z,7.78
2024-01-30T10:22:11.338Z,6.95
2024-01-30T10:25:39.950Z,7.15
2024-01-30T10:29:05.788Z,6.75
2024-01-30T10:32:31.181Z,7.72
2024-01-30T10:35:57.736Z,6.78
2024-01-30T10:39:24.995Z,7.57
2024-01-30T10:42:54.477Z,6.75
2024-01-30T10:46:23.260Z,8.32
2024-01-30T10:49:49.918Z,7.93
2024-01-30T10:53:16.514Z,7.82
2024-01-30T10:56:45.164Z,7.63
2024-01-30T11:00:14.791Z,8.45
2024-01-30T11:03:41.032Z,8.90
2024-01-30T11:07:08.046Z,7.72
2024-01-30T11:10:34.352Z,8.30
2024-01-30T11:14:00.360Z,8.45
2024-01-30T11:17:31.691Z,8.38
2024-01-30T11:21:00.127Z,7.90
2024-01-30T11:24:26.028Z,7.85
2024-01-30T11:27:53.519Z,8.35
2024-01-30T11:31:26.709Z,8.15
2024-01-30T11:34:55.710Z,7.78
2024-01-30T11:38:21.177Z,8.50
2024-01-30T11:41:47.695Z,6.90
2024-01-30T11:45:13.117Z,8.93
2024-01-30T11:48:39.041Z,8.45
2024-01-30T11:52:08.026Z,8.75
2024-01-30T11:55:35.021Z,8.88
2024-01-30T11:59:01.684Z,7.70
2024-01-30T12:02:27.483Z,8.35
2024-01-30T12:05:59.112Z,7.43
2024-01-30T12:09:29.268Z,8.30
2024-01-30T12:12:54.838Z,8.95
2024-01-30T12:16:20.782Z,9.57
2024-01-30T12:19:46.716Z,8.65
2024-01-30T12:23:12.646Z,9.77
2024-01-30T12:26:41.059Z,8.93
2024-01-30T12:30:09.930Z,8.95
2024-01-30T12:33:35.884Z,8.90
2024-01-30T12:37:01.354Z,9.55
2024-01-30T12:40:27.927Z,10.50
2024-01-30T12:43:56.411Z,9.52
2024-01-30T12:47:21.890Z,10.18
2024-01-30T12:50:47.686Z,8.68
2024-01-30T12:54:13.521Z,8.32
2024-01-30T12:57:40.721Z,8.50
2024-01-30T13:01:09.239Z,7.70
2024-01-30T13:04:34.736Z,7.10
2024-01-30T13:08:00.692Z,8.50
2024-01-30T13:11:27.116Z,7.72
2024-01-30T13:14:52.913Z,7.55
2024-01-30T13:18:22.033Z,9.15
2024-01-30T13:21:49.090Z,9.40
2024-01-30T13:25:15.013Z,9.45
2024-01-30T13:28:40.785Z,8.55
2024-01-30T13:32:06.326Z,7.78
2024-01-30T13:35:34.735Z,7.65
2024-01-30T13:39:00.559Z,5.35
2024-01-30T13:42:26.311Z,7.75
2024-01-30T13:45:52.776Z,7.28
2024-01-30T13:49:18.338Z,8.85
2024-01-30T13:52:47.142Z,8.13
2024-01-30T13:56:13.190Z,7.95
2024-01-30T13:59:39.041Z,7.90
2024-01-30T14:03:04.856Z,9.52
2024-01-30T14:06:30.965Z,9.23
2024-01-30T14:09:59.119Z,10.50
2024-01-30T14:13:26.510Z,9.30
2024-01-30T14:16:52.435Z,10.00
2024-01-30T14:20:18.088Z,8.25
2024-01-30T14:23:43.897Z,7.75
2024-01-30T14:27:11.931Z,8.85
2024-01-30T14:30:37.714Z,9.25
2024-01-30T14:34:04.195Z,8.23
2024-01-30T14:37:31.556Z,8.95
2024-01-30T14:40:57.409Z,8.63
2024-01-30T14:44:25.453Z,8.55
2024-01-30T14:47:51.781Z,8.50
2024-01-30T14:51:17.695Z,6.97
2024-01-30T14:54:44.663Z,8.50
2024-01-30T14:58:10.930Z,7.38
2024-01-30T15:01:39.450Z,7.40
2024-01-30T15:05:05.138Z,8.35
2024-01-30T15:08:31.253Z,6.85
2024-01-30T15:11:57.114Z,7.00
2024-01-30T15:15:22.550Z,7.93
2024-01-30T15:18:51.189Z,9.50
2024-01-30T15:22:17.398Z,7.95
2024-01-30T15:25:43.345Z,9.52
2024-01-30T15:29:09.242Z,9.40
2024-01-30T15:32:35.077Z,7.35
2024-01-30T15:36:04.023Z,8.43
2024-01-30T15:39:30.240Z,7.47
2024-01-30T15:42:55.828Z,9.10
2024-01-30T15:46:21.812Z,8.30
2024-01-30T15:49:47.758Z,8.93
2024-01-30T15:53:16.668Z,8.55
2024-01-30T15:56:42.531Z,9.23
2024-01-30T16:00:08.679Z,9.60
2024-01-30T16:03:34.583Z,8.90
2024-01-30T16:07:00.413Z,9.13
2024-01-30T16:10:28.845Z,8.75
2024-01-30T16:13:55.458Z,7.75
2024-01-30T16:17:21.180Z,7.22
2024-01-30T16:20:47.491Z,8.00
2024-01-30T16:24:15.989Z,8.38
2024-01-30T16:27:44.395Z,9.52
2024-01-30T16:31:10.507Z,7.07
2024-01-30T16:34:35.943Z,7.72
2024-01-30T16:38:01.805Z,9.25
2024-01-30T16:41:27.235Z,7.50
2024-01-30T16:44:55.700Z,7.22
2024-01-30T16:48:23.920Z,7.55
2024-01-30T16:51:49.855Z,7.32
2024-01-30T16:55:15.309Z,6.97
2024-01-30T16:58:41.216Z,7.60
2024-01-30T17:02:09.836Z,7.65
2024-01-30T17:05:35.881Z,7.13
2024-01-30T17:09:01.463Z,6.97
2024-01-30T17:12:27.221Z,8.38
2024-01-30T17:15:52.724Z,6.57
2024-01-30T17:19:21.132Z,6.40
2024-01-30T17:22:47.338Z,6.55
2024-01-30T17:26:14.249Z,6.93
2024-01-30T17:29:40.142Z,6.97
2024-01-30T17:33:06.463Z,7.68
2024-01-30T17:36:34.481Z,6.97
2024-01-30T17:40:01.153Z,6.72
2024-01-30T17:43:27.149Z,5.60
2024-01-30T17:46:53.079Z,6.15
2024-01-30T17:50:19.344Z,6.70
2024-01-30T17:53:47.262Z,8.23
2024-01-30T17:57:13.087Z,8.00
2024-01-30T18:00:38.915Z,7.03
2024-01-30T18:04:04.417Z,7.72
2024-01-30T18:07:30.304Z,8.45
2024-01-30T18:10:59.032Z,8.23
2024-01-30T18:14:25.042Z,7.75
2024-01-30T18:17:51.256Z,7.88
2024-01-30T18:21:16.699Z,7.75
2024-01-30T18:24:43.282Z,8.55
2024-01-30T18:28:11.871Z,6.68
2024-01-30T18:31:42.506Z,6.38
2024-01-30T18:35:09.126Z,9.13
2024-01-30T18:38:35.269Z,8.20
2024-01-30T18:42:01.211Z,9.23
2024-01-30T18:45:29.354Z,7.15
2024-01-30T18:48:55.201Z,7.63
2024-01-30T18:52:21.368Z,8.20
2024-01-30T18:55:47.138Z,8.52
2024-01-30T18:59:18.481Z,8.52
2024-01-30T19:02:47.387Z,8.77
2024-01-30T19:06:13.799Z,8.02
2024-01-30T19:09:39.665Z,8.55
2024-01-30T19:13:07.876Z,7.15
2024-01-30T19:16:33.938Z,8.48
2024-01-30T19:20:03.861Z,7.82
2024-01-30T19:23:29.400Z,8.73
2024-01-30T19:26:56.171Z,9.35
2024-01-30T19:30:22.100Z,8.63
2024-01-30T19:33:47.929Z,7.43
2024-01-30T19:37:16.730Z,8.43
2024-01-30T19:40:42.131Z,7.93
2024-01-30T19:44:07.954Z,8.38
2024-01-30T19:47:33.423Z,8.95
2024-01-30T19:50:59.623Z,8.15
2024-01-30T19:54:29.308Z,7.15
2024-01-30T19:57:54.693Z,6.88
2024-01-30T20:01:23.735Z,7.32
2024-01-30T20:04:49.832Z,7.78
2024-01-30T20:08:17.012Z,7.55
2024-01-30T20:11:45.460Z,7.40
2024-01-30T20:15:15.414Z,7.13
2024-01-30T20:18:41.335Z,6.78
2024-01-30T20:22:07.151Z,7.68
2024-01-30T20:25:32.941Z,7.75
2024-01-30T20:29:01.692Z,8.20
2024-01-30T20:32:27.439Z,10.50
2024-01-30T20:35:52.905Z,8.02
2024-01-30T20:39:18.757Z,8.05
2024-01-30T20:42:44.215Z,9.27
2024-01-30T20:46:14.505Z,8.38
2024-01-30T20:49:40.536Z,7.55
2024-01-30T20:53:07.790Z,8.93
2024-01-30T20:56:33.220Z,9.10
2024-01-30T20:59:59.041Z,8.88
2024-01-30T21:03:30.386Z,8.23
2024-01-30T21:06:55.862Z,8.85
2024-01-30T21:10:21.773Z,7.47
2024-01-30T21:13:47.556Z,9.75
2024-01-30T21:17:13.891Z,7.32
2024-01-30T21:20:42.277Z,9.82
2024-01-30T21:24:08.849Z,9.52
2024-01-30T21:27:34.843Z,8.70
2024-01-30T21:31:00.428Z,9.13
2024-01-30T21:34:26.399Z,9.68
2024-01-30T21:37:54.853Z,7.55
2024-01-30T21:41:21.769Z,8.90
2024-01-30T21:44:47.542Z,8.38
2024-01-30T21:48:13.509Z,6.68
2024-01-30T21:51:39.000Z,9.38
2024-01-30T21:55:07.769Z,7.95
2024-01-30T21:58:33.608Z,10.23
2024-01-30T22:01:59.226Z,8.82
2024-01-30T22:05:25.039Z,9.45
2024-01-30T22:08:50.661Z,9.05
2024-01-30T22:12:19.060Z,9.15
2024-01-30T22:15:44.300Z,11.32
2024-01-30T22:19:11.249Z,9.23
2024-01-30T22:22:38.073Z,12.48
2024-01-30T22:26:04.410Z,11.73
2024-01-30T22:29:32.846Z,11.20
2024-01-30T22:32:58.637Z,10.52
2024-01-30T22:36:24.037Z,9.93
2024-01-30T22:39:49.823Z,11.93
2024-01-30T22:43:15.699Z,10.63
2024-01-30T22:46:44.158Z,10.65
2024-01-30T22:50:10.102Z,10.70
2024-01-30T22:53:36.078Z,8.00
2024-01-30T22:57:01.980Z,11.05
2024-01-30T23:00:29.970Z,10.18
2024-01-30T23:03:58.564Z,10.32
2024-01-30T23:07:24.049Z,10.52
2024-01-30T23:10:49.902Z,10.02
